sensor_id;sensor_type;location;lat;lon;timestamp;P1;durP1;ratioP1;P2;durP2;ratioP2
34924;SDS011;21130;51.728;8.748;2023-07-29T00:01:23;4.13;;;3.42;;
34924;SDS011;21130;51.728;8.748;2023-07-29T00:03:50;3.00;;;2.80;;
34924;SDS011;21130;51.728;8.748;2023-07-29T00:06:17;2.95;;;2.67;;
34924;SDS011;21130;51.728;8.748;2023-07-29T00:08:44;2.60;;;2.40;;
34924;SDS011;21130;51.728;8.748;2023-07-29T00:11:11;2.88;;;2.50;;
34924;SDS011;21130;51.728;8.748;2023-07-29T00:13:37;3.30;;;3.03;;
34924;SDS011;21130;51.728;8.748;2023-07-29T00:16:04;2.53;;;2.33;;
34924;SDS011;21130;51.728;8.748;2023-07-29T00:18:31;2.40;;;2.15;;
34924;SDS011;21130;51.728;8.748;2023-07-29T00:20:58;2.85;;;2.65;;
34924;SDS011;21130;51.728;8.748;2023-07-29T00:23:24;2.40;;;2.20;;
34924;SDS011;21130;51.728;8.748;2023-07-29T00:25:52;3.22;;;2.20;;
34924;SDS011;21130;51.728;8.748;2023-07-29T00:28:18;2.15;;;2.05;;
34924;SDS011;21130;51.728;8.748;2023-07-29T00:30:45;2.55;;;2.35;;
34924;SDS011;21130;51.728;8.748;2023-07-29T00:33:11;2.10;;;2.00;;
34924;SDS011;21130;51.728;8.748;2023-07-29T00:35:38;2.25;;;2.10;;
34924;SDS011;21130;51.728;8.748;2023-07-29T00:38:04;1.88;;;1.77;;
34924;SDS011;21130;51.728;8.748;2023-07-29T00:40:31;2.22;;;1.95;;
34924;SDS011;21130;51.728;8.748;2023-07-29T00:43:03;3.72;;;2.00;;
34924;SDS011;21130;51.728;8.748;2023-07-29T00:45:30;2.20;;;1.90;;
34924;SDS011;21130;51.728;8.748;2023-07-29T00:47:58;1.67;;;1.58;;
34924;SDS011;21130;51.728;8.748;2023-07-29T00:50:25;4.45;;;1.77;;
34924;SDS011;21130;51.728;8.748;2023-07-29T00:52:53;1.70;;;1.60;;
34924;SDS011;21130;51.728;8.748;2023-07-29T00:55:20;1.77;;;1.67;;
34924;SDS011;21130;51.728;8.748;2023-07-29T00:57:46;1.65;;;1.55;;
34924;SDS011;21130;51.728;8.748;2023-07-29T01:00:18;2.50;;;2.10;;
34924;SDS011;21130;51.728;8.748;2023-07-29T01:02:44;2.88;;;1.80;;
34924;SDS011;21130;51.728;8.748;2023-07-29T01:05:11;2.50;;;1.92;;
34924;SDS011;21130;51.728;8.748;2023-07-29T01:07:39;1.85;;;1.75;;
34924;SDS011;21130;51.728;8.748;2023-07-29T01:10:17;1.83;;;1.73;;
34924;SDS011;21130;51.728;8.748;2023-07-29T01:12:51;2.67;;;1.75;;
34924;SDS011;21130;51.728;8.748;2023-07-29T01:15:28;2.08;;;1.70;;
34924;SDS011;21130;51.728;8.748;2023-07-29T01:18:02;1.83;;;1.65;;
34924;SDS011;21130;51.728;8.748;2023-07-29T01:20:32;1.60;;;1.50;;
34924;SDS011;21130;51.728;8.748;2023-07-29T01:23:00;1.98;;;1.88;;
34924;SDS011;21130;51.728;8.748;2023-07-29T01:25:28;2.15;;;2.05;;
34924;SDS011;21130;51.728;8.748;2023-07-29T01:27:54;1.90;;;1.80;;
34924;SDS011;21130;51.728;8.748;2023-07-29T01:30:22;1.83;;;1.73;;
34924;SDS011;21130;51.728;8.748;2023-07-29T01:32:56;2.20;;;2.08;;
34924;SDS011;21130;51.728;8.748;2023-07-29T01:35:31;2.10;;;1.95;;
34924;SDS011;21130;51.728;8.748;2023-07-29T01:38:04;2.25;;;1.60;;
34924;SDS011;21130;51.728;8.748;2023-07-29T01:40:34;2.17;;;1.90;;
34924;SDS011;21130;51.728;8.748;2023-07-29T01:43:01;2.97;;;1.92;;
34924;SDS011;21130;51.728;8.748;2023-07-29T01:45:28;1.60;;;1.50;;
34924;SDS011;21130;51.728;8.748;2023-07-29T01:47:56;2.08;;;1.88;;
34924;SDS011;21130;51.728;8.748;2023-07-29T01:50:23;1.70;;;1.60;;
34924;SDS011;21130;51.728;8.748;2023-07-29T01:52:50;3.17;;;1.90;;
34924;SDS011;21130;51.728;8.748;2023-07-29T01:55:16;1.90;;;1.60;;
34924;SDS011;21130;51.728;8.748;2023-07-29T01:57:44;1.73;;;1.63;;
34924;SDS011;21130;51.728;8.748;2023-07-29T02:00:11;2.10;;;1.80;;
34924;SDS011;21130;51.728;8.748;2023-07-29T02:02:38;1.67;;;1.55;;
34924;SDS011;21130;51.728;8.748;2023-07-29T02:05:05;1.83;;;1.73;;
34924;SDS011;21130;51.728;8.748;2023-07-29T02:07:31;1.60;;;1.50;;
34924;SDS011;21130;51.728;8.748;2023-07-29T02:09:58;1.90;;;1.80;;
34924;SDS011;21130;51.728;8.748;2023-07-29T02:12:25;2.00;;;1.80;;
34924;SDS011;21130;51.728;8.748;2023-07-29T02:14:52;1.65;;;1.55;;
34924;SDS011;21130;51.728;8.748;2023-07-29T02:17:19;2.92;;;1.92;;
34924;SDS011;21130;51.728;8.748;2023-07-29T02:19:46;1.90;;;1.80;;
34924;SDS011;21130;51.728;8.748;2023-07-29T02:22:13;1.60;;;1.50;;
34924;SDS011;21130;51.728;8.748;2023-07-29T02:24:40;1.90;;;1.80;;
34924;SDS011;21130;51.728;8.748;2023-07-29T02:27:07;1.58;;;1.58;;
34924;SDS011;21130;51.728;8.748;2023-07-29T02:29:34;2.00;;;1.90;;
34924;SDS011;21130;51.728;8.748;2023-07-29T02:32:03;1.70;;;1.60;;
34924;SDS011;21130;51.728;8.748;2023-07-29T02:34:29;1.75;;;1.60;;
34924;SDS011;21130;51.728;8.748;2023-07-29T02:36:56;1.88;;;1.77;;
34924;SDS011;21130;51.728;8.748;2023-07-29T02:39:23;1.80;;;1.70;;
34924;SDS011;21130;51.728;8.748;2023-07-29T02:41:49;2.00;;;1.90;;
34924;SDS011;21130;51.728;8.748;2023-07-29T02:44:16;3.05;;;1.90;;
34924;SDS011;21130;51.728;8.748;2023-07-29T02:46:43;1.80;;;1.70;;
34924;SDS011;21130;51.728;8.748;2023-07-29T02:49:10;1.75;;;1.65;;
34924;SDS011;21130;51.728;8.748;2023-07-29T02:51:37;1.63;;;1.52;;
34924;SDS011;21130;51.728;8.748;2023-07-29T02:54:03;1.80;;;1.70;;
34924;SDS011;21130;51.728;8.748;2023-07-29T02:56:30;3.38;;;2.08;;
34924;SDS011;21130;51.728;8.748;2023-07-29T02:58:56;2.47;;;2.25;;
34924;SDS011;21130;51.728;8.748;2023-07-29T03:01:25;2.40;;;2.30;;
34924;SDS011;21130;51.728;8.748;2023-07-29T03:03:51;2.70;;;2.50;;
34924;SDS011;21130;51.728;8.748;2023-07-29T03:06:19;2.70;;;2.50;;
34924;SDS011;21130;51.728;8.748;2023-07-29T03:08:45;2.30;;;2.20;;
34924;SDS011;21130;51.728;8.748;2023-07-29T03:11:13;2.00;;;1.90;;
34924;SDS011;21130;51.728;8.748;2023-07-29T03:13:40;2.78;;;2.53;;
34924;SDS011;21130;51.728;8.748;2023-07-29T03:16:08;2.92;;;2.22;;
34924;SDS011;21130;51.728;8.748;2023-07-29T03:18:35;2.38;;;2.25;;
34924;SDS011;21130;51.728;8.748;2023-07-29T03:21:02;2.42;;;2.22;;
34924;SDS011;21130;51.728;8.748;2023-07-29T03:23:31;2.38;;;2.28;;
34924;SDS011;21130;51.728;8.748;2023-07-29T03:25:59;2.72;;;2.53;;
34924;SDS011;21130;51.728;8.748;2023-07-29T03:28:27;2.65;;;2.45;;
34924;SDS011;21130;51.728;8.748;2023-07-29T03:30:54;2.63;;;2.42;;
34924;SDS011;21130;51.728;8.748;2023-07-29T03:33:21;2.63;;;2.42;;
34924;SDS011;21130;51.728;8.748;2023-07-29T03:35:48;2.50;;;2.40;;
34924;SDS011;21130;51.728;8.748;2023-07-29T03:38:15;2.42;;;2.28;;
34924;SDS011;21130;51.728;8.748;2023-07-29T03:40:43;2.67;;;2.40;;
34924;SDS011;21130;51.728;8.748;2023-07-29T03:43:09;3.50;;;2.75;;
34924;SDS011;21130;51.728;8.748;2023-07-29T03:45:36;2.88;;;2.35;;
34924;SDS011;21130;51.728;8.748;2023-07-29T03:48:04;2.80;;;2.60;;
34924;SDS011;21130;51.728;8.748;2023-07-29T03:50:32;2.58;;;2.38;;
34924;SDS011;21130;51.728;8.748;2023-07-29T03:53:00;2.63;;;2.42;;
34924;SDS011;21130;51.728;8.748;2023-07-29T03:55:26;3.00;;;2.40;;
34924;SDS011;21130;51.728;8.748;2023-07-29T03:57:56;2.80;;;2.40;;
34924;SDS011;21130;51.728;8.748;2023-07-29T04:00:22;3.10;;;2.90;;
34924;SDS011;21130;51.728;8.748;2023-07-29T04:02:49;2.90;;;2.70;;
34924;SDS011;21130;51.728;8.748;2023-07-29T04:05:15;2.85;;;2.65;;
34924;SDS011;21130;51.728;8.748;2023-07-29T04:07:42;2.90;;;2.70;;
34924;SDS011;21130;51.728;8.748;2023-07-29T04:10:09;2.47;;;2.25;;
34924;SDS011;21130;51.728;8.748;2023-07-29T04:12:36;3.58;;;3.00;;
34924;SDS011;21130;51.728;8.748;2023-07-29T04:15:04;4.80;;;3.00;;
34924;SDS011;21130;51.728;8.748;2023-07-29T04:17:31;3.40;;;3.10;;
34924;SDS011;21130;51.728;8.748;2023-07-29T04:19:58;5.22;;;3.47;;
34924;SDS011;21130;51.728;8.748;2023-07-29T04:22:24;3.97;;;2.90;;
34924;SDS011;21130;51.728;8.748;2023-07-29T04:24:50;3.22;;;2.95;;
34924;SDS011;21130;51.728;8.748;2023-07-29T04:27:17;5.50;;;3.35;;
34924;SDS011;21130;51.728;8.748;2023-07-29T04:29:43;3.00;;;2.70;;
34924;SDS011;21130;51.728;8.748;2023-07-29T04:32:11;4.32;;;2.58;;
34924;SDS011;21130;51.728;8.748;2023-07-29T04:34:38;3.25;;;2.95;;
34924;SDS011;21130;51.728;8.748;2023-07-29T04:37:04;2.78;;;2.63;;
34924;SDS011;21130;51.728;8.748;2023-07-29T04:39:31;2.67;;;2.47;;
34924;SDS011;21130;51.728;8.748;2023-07-29T04:41:58;2.63;;;2.40;;
34924;SDS011;21130;51.728;8.748;2023-07-29T04:44:26;2.47;;;2.28;;
34924;SDS011;21130;51.728;8.748;2023-07-29T04:46:52;3.13;;;2.45;;
34924;SDS011;21130;51.728;8.748;2023-07-29T04:49:20;2.53;;;2.38;;
34924;SDS011;21130;51.728;8.748;2023-07-29T04:51:46;2.40;;;2.20;;
34924;SDS011;21130;51.728;8.748;2023-07-29T04:54:13;2.35;;;2.15;;
34924;SDS011;21130;51.728;8.748;2023-07-29T04:56:39;2.45;;;2.25;;
34924;SDS011;21130;51.728;8.748;2023-07-29T04:59:06;3.35;;;2.30;;
34924;SDS011;21130;51.728;8.748;2023-07-29T05:01:33;4.82;;;2.30;;
34924;SDS011;21130;51.728;8.748;2023-07-29T05:04:00;2.42;;;2.25;;
34924;SDS011;21130;51.728;8.748;2023-07-29T05:06:28;2.58;;;2.08;;
34924;SDS011;21130;51.728;8.748;2023-07-29T05:08:56;2.22;;;2.08;;
34924;SDS011;21130;51.728;8.748;2023-07-29T05:11:23;2.20;;;2.10;;
34924;SDS011;21130;51.728;8.748;2023-07-29T05:13:50;2.20;;;2.00;;
34924;SDS011;21130;51.728;8.748;2023-07-29T05:16:16;4.35;;;2.50;;
34924;SDS011;21130;51.728;8.748;2023-07-29T05:18:43;2.50;;;2.30;;
34924;SDS011;21130;51.728;8.748;2023-07-29T05:21:09;2.22;;;2.00;;
34924;SDS011;21130;51.728;8.748;2023-07-29T05:23:40;2.42;;;2.22;;
34924;SDS011;21130;51.728;8.748;2023-07-29T05:26:07;2.88;;;2.40;;
34924;SDS011;21130;51.728;8.748;2023-07-29T05:28:33;4.18;;;2.30;;
34924;SDS011;21130;51.728;8.748;2023-07-29T05:31:00;2.80;;;2.10;;
34924;SDS011;21130;51.728;8.748;2023-07-29T05:33:27;3.65;;;2.30;;
34924;SDS011;21130;51.728;8.748;2023-07-29T05:35:54;2.88;;;2.67;;
34924;SDS011;21130;51.728;8.748;2023-07-29T05:38:21;2.78;;;1.95;;
34924;SDS011;21130;51.728;8.748;2023-07-29T05:40:49;3.17;;;2.13;;
34924;SDS011;21130;51.728;8.748;2023-07-29T05:43:16;1.65;;;1.55;;
34924;SDS011;21130;51.728;8.748;2023-07-29T05:45:42;1.77;;;1.67;;
34924;SDS011;21130;51.728;8.748;2023-07-29T05:48:08;1.98;;;1.83;;
34924;SDS011;21130;51.728;8.748;2023-07-29T05:50:35;2.05;;;1.95;;
34924;SDS011;21130;51.728;8.748;2023-07-29T05:53:01;2.08;;;1.65;;
34924;SDS011;21130;51.728;8.748;2023-07-29T05:55:28;1.83;;;1.73;;
34924;SDS011;21130;51.728;8.748;2023-07-29T05:57:56;1.80;;;1.70;;
34924;SDS011;21130;51.728;8.748;2023-07-29T06:00:22;2.63;;;1.58;;
34924;SDS011;21130;51.728;8.748;2023-07-29T06:02:49;2.03;;;1.58;;
34924;SDS011;21130;51.728;8.748;2023-07-29T06:05:15;3.03;;;1.90;;
34924;SDS011;21130;51.728;8.748;2023-07-29T06:07:42;1.70;;;1.60;;
34924;SDS011;21130;51.728;8.748;2023-07-29T06:10:10;2.35;;;1.80;;
34924;SDS011;21130;51.728;8.748;2023-07-29T06:12:37;1.95;;;1.77;;
34924;SDS011;21130;51.728;8.748;2023-07-29T06:15:05;2.03;;;1.85;;
34924;SDS011;21130;51.728;8.748;2023-07-29T06:17:32;1.90;;;1.80;;
34924;SDS011;21130;51.728;8.748;2023-07-29T06:19:59;2.70;;;1.92;;
34924;SDS011;21130;51.728;8.748;2023-07-29T06:22:25;1.92;;;1.83;;
34924;SDS011;21130;51.728;8.748;2023-07-29T06:24:52;1.85;;;1.75;;
34924;SDS011;21130;51.728;8.748;2023-07-29T06:27:18;2.00;;;1.90;;
34924;SDS011;21130;51.728;8.748;2023-07-29T06:29:45;2.13;;;1.92;;
34924;SDS011;21130;51.728;8.748;2023-07-29T06:32:12;2.20;;;2.10;;
34924;SDS011;21130;51.728;8.748;2023-07-29T06:34:39;3.10;;;2.30;;
34924;SDS011;21130;51.728;8.748;2023-07-29T06:37:05;3.95;;;2.00;;
34924;SDS011;21130;51.728;8.748;2023-07-29T06:39:32;2.10;;;2.00;;
34924;SDS011;21130;51.728;8.748;2023-07-29T06:41:59;2.00;;;1.90;;
34924;SDS011;21130;51.728;8.748;2023-07-29T06:44:25;2.00;;;1.63;;
34924;SDS011;21130;51.728;8.748;2023-07-29T06:46:52;2.80;;;2.40;;
34924;SDS011;21130;51.728;8.748;2023-07-29T06:49:21;2.20;;;2.10;;
34924;SDS011;21130;51.728;8.748;2023-07-29T06:51:47;3.83;;;2.00;;
34924;SDS011;21130;51.728;8.748;2023-07-29T06:54:15;2.30;;;2.10;;
34924;SDS011;21130;51.728;8.748;2023-07-29T06:56:42;2.22;;;2.08;;
34924;SDS011;21130;51.728;8.748;2023-07-29T06:59:08;2.10;;;2.00;;
34924;SDS011;21130;51.728;8.748;2023-07-29T07:01:35;2.25;;;1.90;;
34924;SDS011;21130;51.728;8.748;2023-07-29T07:04:01;2.90;;;2.10;;
34924;SDS011;21130;51.728;8.748;2023-07-29T07:06:29;2.25;;;1.92;;
34924;SDS011;21130;51.728;8.748;2023-07-29T07:08:56;2.00;;;1.90;;
34924;SDS011;21130;51.728;8.748;2023-07-29T07:11:22;2.40;;;2.20;;
34924;SDS011;21130;51.728;8.748;2023-07-29T07:13:49;2.67;;;2.47;;
34924;SDS011;21130;51.728;8.748;2023-07-29T07:16:16;1.92;;;1.83;;
34924;SDS011;21130;51.728;8.748;2023-07-29T07:18:42;2.75;;;2.30;;
34924;SDS011;21130;51.728;8.748;2023-07-29T07:21:09;2.20;;;2.10;;
34924;SDS011;21130;51.728;8.748;2023-07-29T07:23:40;2.17;;;2.08;;
34924;SDS011;21130;51.728;8.748;2023-07-29T07:26:07;3.10;;;2.78;;
34924;SDS011;21130;51.728;8.748;2023-07-29T07:28:34;3.35;;;3.05;;
34924;SDS011;21130;51.728;8.748;2023-07-29T07:31:00;5.32;;;4.93;;
34924;SDS011;21130;51.728;8.748;2023-07-29T07:33:27;5.55;;;4.78;;
34924;SDS011;21130;51.728;8.748;2023-07-29T07:35:53;6.00;;;5.60;;
34924;SDS011;21130;51.728;8.748;2023-07-29T07:38:20;6.70;;;6.20;;
34924;SDS011;21130;51.728;8.748;2023-07-29T07:40:53;6.47;;;5.95;;
34924;SDS011;21130;51.728;8.748;2023-07-29T07:43:20;7.35;;;6.85;;
34924;SDS011;21130;51.728;8.748;2023-07-29T07:45:47;8.32;;;7.57;;
34924;SDS011;21130;51.728;8.748;2023-07-29T07:48:14;9.02;;;8.23;;
34924;SDS011;21130;51.728;8.748;2023-07-29T07:50:41;9.82;;;8.90;;
34924;SDS011;21130;51.728;8.748;2023-07-29T07:53:08;10.98;;;10.07;;
34924;SDS011;21130;51.728;8.748;2023-07-29T07:55:34;11.93;;;10.73;;
34924;SDS011;21130;51.728;8.748;2023-07-29T07:58:02;12.68;;;10.63;;
34924;SDS011;21130;51.728;8.748;2023-07-29T08:00:29;11.65;;;10.65;;
34924;SDS011;21130;51.728;8.748;2023-07-29T08:02:56;12.10;;;11.10;;
34924;SDS011;21130;51.728;8.748;2023-07-29T08:05:22;12.13;;;10.88;;
34924;SDS011;21130;51.728;8.748;2023-07-29T08:07:49;11.95;;;10.80;;
34924;SDS011;21130;51.728;8.748;2023-07-29T08:10:16;10.50;;;9.70;;
34924;SDS011;21130;51.728;8.748;2023-07-29T08:12:42;10.95;;;10.05;;
34924;SDS011;21130;51.728;8.748;2023-07-29T08:15:10;10.63;;;9.63;;
34924;SDS011;21130;51.728;8.748;2023-07-29T08:17:38;8.88;;;8.07;;
34924;SDS011;21130;51.728;8.748;2023-07-29T08:20:05;8.68;;;7.78;;
34924;SDS011;21130;51.728;8.748;2023-07-29T08:22:32;8.45;;;7.63;;
34924;SDS011;21130;51.728;8.748;2023-07-29T08:24:59;8.45;;;7.75;;
34924;SDS011;21130;51.728;8.748;2023-07-29T08:27:25;8.60;;;7.90;;
34924;SDS011;21130;51.728;8.748;2023-07-29T08:29:53;8.32;;;7.45;;
34924;SDS011;21130;51.728;8.748;2023-07-29T08:32:21;6.70;;;6.13;;
34924;SDS011;21130;51.728;8.748;2023-07-29T08:34:47;6.97;;;6.28;;
34924;SDS011;21130;51.728;8.748;2023-07-29T08:37:15;6.30;;;5.80;;
34924;SDS011;21130;51.728;8.748;2023-07-29T08:39:42;6.75;;;6.15;;
34924;SDS011;21130;51.728;8.748;2023-07-29T08:42:08;6.85;;;6.28;;
34924;SDS011;21130;51.728;8.748;2023-07-29T08:44:40;8.38;;;6.68;;
34924;SDS011;21130;51.728;8.748;2023-07-29T08:47:14;7.13;;;6.48;;
34924;SDS011;21130;51.728;8.748;2023-07-29T08:49:42;8.38;;;7.65;;
34924;SDS011;21130;51.728;8.748;2023-07-29T08:52:10;7.25;;;6.72;;
34924;SDS011;21130;51.728;8.748;2023-07-29T08:54:38;7.85;;;7.15;;
34924;SDS011;21130;51.728;8.748;2023-07-29T08:57:05;7.93;;;6.82;;
34924;SDS011;21130;51.728;8.748;2023-07-29T08:59:32;7.47;;;6.75;;
34924;SDS011;21130;51.728;8.748;2023-07-29T09:01:59;7.72;;;7.13;;
34924;SDS011;21130;51.728;8.748;2023-07-29T09:04:25;8.13;;;7.43;;
34924;SDS011;21130;51.728;8.748;2023-07-29T09:06:55;8.35;;;7.65;;
34924;SDS011;21130;51.728;8.748;2023-07-29T09:09:22;7.75;;;7.07;;
34924;SDS011;21130;51.728;8.748;2023-07-29T09:11:48;7.20;;;6.50;;
34924;SDS011;21130;51.728;8.748;2023-07-29T09:14:15;7.75;;;7.15;;
34924;SDS011;21130;51.728;8.748;2023-07-29T09:16:42;7.25;;;6.65;;
34924;SDS011;21130;51.728;8.748;2023-07-29T09:19:10;6.70;;;6.15;;
34924;SDS011;21130;51.728;8.748;2023-07-29T09:21:38;4.88;;;4.47;;
34924;SDS011;21130;51.728;8.748;2023-07-29T09:24:06;5.07;;;3.75;;
34924;SDS011;21130;51.728;8.748;2023-07-29T09:26:34;3.33;;;3.13;;
34924;SDS011;21130;51.728;8.748;2023-07-29T09:29:01;3.88;;;3.08;;
34924;SDS011;21130;51.728;8.748;2023-07-29T09:31:28;3.17;;;2.92;;
34924;SDS011;21130;51.728;8.748;2023-07-29T09:33:56;3.08;;;2.75;;
34924;SDS011;21130;51.728;8.748;2023-07-29T09:36:24;2.75;;;2.55;;
34924;SDS011;21130;51.728;8.748;2023-07-29T09:38:52;2.78;;;2.58;;
34924;SDS011;21130;51.728;8.748;2023-07-29T09:41:22;3.10;;;2.90;;
34924;SDS011;21130;51.728;8.748;2023-07-29T09:43:53;2.90;;;2.60;;
34924;SDS011;21130;51.728;8.748;2023-07-29T09:46:22;3.58;;;3.28;;
34924;SDS011;21130;51.728;8.748;2023-07-29T09:48:52;2.83;;;2.63;;
34924;SDS011;21130;51.728;8.748;2023-07-29T09:51:19;4.40;;;2.50;;
34924;SDS011;21130;51.728;8.748;2023-07-29T09:53:46;2.80;;;2.50;;
34924;SDS011;21130;51.728;8.748;2023-07-29T09:56:14;3.45;;;2.33;;
34924;SDS011;21130;51.728;8.748;2023-07-29T09:58:43;2.55;;;2.35;;
34924;SDS011;21130;51.728;8.748;2023-07-29T10:01:11;2.83;;;2.30;;
34924;SDS011;21130;51.728;8.748;2023-07-29T10:03:38;3.15;;;2.00;;
34924;SDS011;21130;51.728;8.748;2023-07-29T10:06:05;2.90;;;1.77;;
34924;SDS011;21130;51.728;8.748;2023-07-29T10:08:33;3.53;;;1.83;;
34924;SDS011;21130;51.728;8.748;2023-07-29T10:11:01;1.67;;;1.58;;
34924;SDS011;21130;51.728;8.748;2023-07-29T10:13:28;2.65;;;1.70;;
34924;SDS011;21130;51.728;8.748;2023-07-29T10:15:56;4.60;;;1.30;;
34924;SDS011;21130;51.728;8.748;2023-07-29T10:18:23;1.15;;;0.88;;
34924;SDS011;21130;51.728;8.748;2023-07-29T10:20:50;1.30;;;1.00;;
34924;SDS011;21130;51.728;8.748;2023-07-29T10:23:18;1.88;;;1.10;;
34924;SDS011;21130;51.728;8.748;2023-07-29T10:25:46;1.17;;;1.08;;
34924;SDS011;21130;51.728;8.748;2023-07-29T10:28:16;1.15;;;1.00;;
34924;SDS011;21130;51.728;8.748;2023-07-29T10:30:46;1.48;;;1.10;;
34924;SDS011;21130;51.728;8.748;2023-07-29T10:33:15;1.60;;;0.93;;
34924;SDS011;21130;51.728;8.748;2023-07-29T10:35:42;1.63;;;0.80;;
34924;SDS011;21130;51.728;8.748;2023-07-29T10:38:08;1.10;;;1.00;;
34924;SDS011;21130;51.728;8.748;2023-07-29T10:40:45;1.45;;;0.80;;
34924;SDS011;21130;51.728;8.748;2023-07-29T10:43:18;0.98;;;0.90;;
34924;SDS011;21130;51.728;8.748;2023-07-29T10:45:49;0.80;;;0.80;;
34924;SDS011;21130;51.728;8.748;2023-07-29T10:51:21;0.80;;;0.80;;
34924;SDS011;21130;51.728;8.748;2023-07-29T10:53:54;1.02;;;0.90;;
34924;SDS011;21130;51.728;8.748;2023-07-29T10:56:26;0.88;;;0.88;;
34924;SDS011;21130;51.728;8.748;2023-07-29T10:58:54;2.13;;;0.82;;
34924;SDS011;21130;51.728;8.748;2023-07-29T11:01:28;0.90;;;0.90;;
34924;SDS011;21130;51.728;8.748;2023-07-29T11:09:52;2.05;;;0.80;;
34924;SDS011;21130;51.728;8.748;2023-07-29T11:15:17;1.00;;;1.00;;
34924;SDS011;21130;51.728;8.748;2023-07-29T11:17:46;1.00;;;1.00;;
34924;SDS011;21130;51.728;8.748;2023-07-29T11:20:15;1.65;;;1.02;;
34924;SDS011;21130;51.728;8.748;2023-07-29T11:22:42;1.20;;;1.10;;
34924;SDS011;21130;51.728;8.748;2023-07-29T11:25:10;1.75;;;0.90;;
34924;SDS011;21130;51.728;8.748;2023-07-29T11:27:38;0.75;;;0.75;;
34924;SDS011;21130;51.728;8.748;2023-07-29T11:30:06;4.22;;;1.00;;
34924;SDS011;21130;51.728;8.748;2023-07-29T11:32:34;0.80;;;0.80;;
34924;SDS011;21130;51.728;8.748;2023-07-29T11:35:17;2.83;;;0.82;;
34924;SDS011;21130;51.728;8.748;2023-07-29T11:37:45;2.90;;;1.38;;
34924;SDS011;21130;51.728;8.748;2023-07-29T11:40:13;1.23;;;0.90;;
34924;SDS011;21130;51.728;8.748;2023-07-29T11:42:40;0.73;;;0.73;;
34924;SDS011;21130;51.728;8.748;2023-07-29T11:45:07;1.00;;;1.00;;
34924;SDS011;21130;51.728;8.748;2023-07-29T11:47:36;1.83;;;1.20;;
34924;SDS011;21130;51.728;8.748;2023-07-29T11:50:03;0.90;;;0.90;;
34924;SDS011;21130;51.728;8.748;2023-07-29T11:52:32;0.88;;;0.88;;
34924;SDS011;21130;51.728;8.748;2023-07-29T11:55:00;3.58;;;1.00;;
34924;SDS011;21130;51.728;8.748;2023-07-29T11:57:27;2.63;;;1.25;;
34924;SDS011;21130;51.728;8.748;2023-07-29T11:59:54;0.90;;;0.90;;
34924;SDS011;21130;51.728;8.748;2023-07-29T12:02:21;1.30;;;0.93;;
34924;SDS011;21130;51.728;8.748;2023-07-29T12:04:49;1.15;;;0.80;;
34924;SDS011;21130;51.728;8.748;2023-07-29T12:07:17;0.82;;;0.82;;
34924;SDS011;21130;51.728;8.748;2023-07-29T12:09:46;1.10;;;1.02;;
34924;SDS011;21130;51.728;8.748;2023-07-29T12:12:13;1.23;;;0.90;;
34924;SDS011;21130;51.728;8.748;2023-07-29T12:14:43;1.10;;;0.98;;
34924;SDS011;21130;51.728;8.748;2023-07-29T12:17:11;1.30;;;1.20;;
34924;SDS011;21130;51.728;8.748;2023-07-29T12:19:38;1.00;;;1.00;;
34924;SDS011;21130;51.728;8.748;2023-07-29T12:22:05;1.17;;;1.10;;
34924;SDS011;21130;51.728;8.748;2023-07-29T12:24:33;1.27;;;1.00;;
34924;SDS011;21130;51.728;8.748;2023-07-29T12:27:04;1.02;;;0.93;;
34924;SDS011;21130;51.728;8.748;2023-07-29T12:29:31;1.20;;;1.10;;
34924;SDS011;21130;51.728;8.748;2023-07-29T12:31:58;1.13;;;1.02;;
34924;SDS011;21130;51.728;8.748;2023-07-29T12:34:26;1.00;;;1.00;;
34924;SDS011;21130;51.728;8.748;2023-07-29T12:36:53;1.38;;;1.27;;
34924;SDS011;21130;51.728;8.748;2023-07-29T12:39:22;1.48;;;1.30;;
34924;SDS011;21130;51.728;8.748;2023-07-29T12:41:50;2.17;;;1.15;;
34924;SDS011;21130;51.728;8.748;2023-07-29T12:44:19;3.15;;;1.20;;
34924;SDS011;21130;51.728;8.748;2023-07-29T12:46:46;2.83;;;1.30;;
34924;SDS011;21130;51.728;8.748;2023-07-29T12:49:12;2.55;;;1.50;;
34924;SDS011;21130;51.728;8.748;2023-07-29T12:51:39;1.40;;;1.30;;
34924;SDS011;21130;51.728;8.748;2023-07-29T12:54:05;1.52;;;1.42;;
34924;SDS011;21130;51.728;8.748;2023-07-29T12:56:32;2.45;;;1.50;;
34924;SDS011;21130;51.728;8.748;2023-07-29T12:58:59;2.58;;;1.40;;
34924;SDS011;21130;51.728;8.748;2023-07-29T13:01:28;1.63;;;1.50;;
34924;SDS011;21130;51.728;8.748;2023-07-29T13:03:55;1.73;;;1.40;;
34924;SDS011;21130;51.728;8.748;2023-07-29T13:06:22;1.60;;;1.50;;
34924;SDS011;21130;51.728;8.748;2023-07-29T13:08:49;2.97;;;2.78;;
34924;SDS011;21130;51.728;8.748;2023-07-29T13:11:16;1.30;;;1.20;;
34924;SDS011;21130;51.728;8.748;2023-07-29T13:13:42;1.75;;;1.20;;
34924;SDS011;21130;51.728;8.748;2023-07-29T13:16:10;1.40;;;1.30;;
34924;SDS011;21130;51.728;8.748;2023-07-29T13:18:38;1.98;;;1.40;;
34924;SDS011;21130;51.728;8.748;2023-07-29T13:21:05;1.20;;;1.10;;
34924;SDS011;21130;51.728;8.748;2023-07-29T13:23:33;2.40;;;1.23;;
34924;SDS011;21130;51.728;8.748;2023-07-29T13:25:59;1.38;;;1.27;;
34924;SDS011;21130;51.728;8.748;2023-07-29T13:28:26;2.88;;;1.40;;
34924;SDS011;21130;51.728;8.748;2023-07-29T13:30:52;1.60;;;1.50;;
34924;SDS011;21130;51.728;8.748;2023-07-29T13:33:19;1.40;;;1.30;;
34924;SDS011;21130;51.728;8.748;2023-07-29T13:35:46;3.67;;;1.75;;
34924;SDS011;21130;51.728;8.748;2023-07-29T13:38:13;1.60;;;1.50;;
34924;SDS011;21130;51.728;8.748;2023-07-29T13:40:39;1.60;;;1.50;;
34924;SDS011;21130;51.728;8.748;2023-07-29T13:43:06;1.65;;;1.30;;
34924;SDS011;21130;51.728;8.748;2023-07-29T13:45:33;3.03;;;1.70;;
34924;SDS011;21130;51.728;8.748;2023-07-29T13:48:01;1.80;;;1.23;;
34924;SDS011;21130;51.728;8.748;2023-07-29T13:50:27;1.45;;;1.35;;
34924;SDS011;21130;51.728;8.748;2023-07-29T13:52:55;2.63;;;1.20;;
34924;SDS011;21130;51.728;8.748;2023-07-29T13:55:22;1.25;;;1.25;;
34924;SDS011;21130;51.728;8.748;2023-07-29T13:57:48;1.40;;;1.30;;
34924;SDS011;21130;51.728;8.748;2023-07-29T14:00:15;1.25;;;1.23;;
34924;SDS011;21130;51.728;8.748;2023-07-29T14:02:41;3.20;;;1.50;;
34924;SDS011;21130;51.728;8.748;2023-07-29T14:05:08;1.58;;;1.30;;
34924;SDS011;21130;51.728;8.748;2023-07-29T14:07:36;2.03;;;1.00;;
34924;SDS011;21130;51.728;8.748;2023-07-29T14:10:05;1.40;;;1.08;;
34924;SDS011;21130;51.728;8.748;2023-07-29T14:12:32;2.78;;;1.20;;
34924;SDS011;21130;51.728;8.748;2023-07-29T14:14:58;1.40;;;1.23;;
34924;SDS011;21130;51.728;8.748;2023-07-29T14:17:25;2.97;;;1.30;;
34924;SDS011;21130;51.728;8.748;2023-07-29T14:19:51;1.10;;;1.10;;
34924;SDS011;21130;51.728;8.748;2023-07-29T14:22:18;1.25;;;1.20;;
34924;SDS011;21130;51.728;8.748;2023-07-29T14:24:44;1.88;;;1.30;;
34924;SDS011;21130;51.728;8.748;2023-07-29T14:27:12;2.05;;;1.25;;
34924;SDS011;21130;51.728;8.748;2023-07-29T14:29:39;2.83;;;1.50;;
34924;SDS011;21130;51.728;8.748;2023-07-29T14:32:05;1.50;;;1.40;;
34924;SDS011;21130;51.728;8.748;2023-07-29T14:34:32;2.90;;;1.60;;
34924;SDS011;21130;51.728;8.748;2023-07-29T14:36:59;1.70;;;1.60;;
34924;SDS011;21130;51.728;8.748;2023-07-29T14:39:25;2.70;;;1.33;;
34924;SDS011;21130;51.728;8.748;2023-07-29T14:41:52;1.67;;;1.50;;
34924;SDS011;21130;51.728;8.748;2023-07-29T14:44:19;3.08;;;1.70;;
34924;SDS011;21130;51.728;8.748;2023-07-29T14:46:46;1.58;;;1.35;;
34924;SDS011;21130;51.728;8.748;2023-07-29T14:49:12;2.20;;;1.45;;
34924;SDS011;21130;51.728;8.748;2023-07-29T14:51:39;3.03;;;1.35;;
34924;SDS011;21130;51.728;8.748;2023-07-29T14:54:05;2.72;;;1.10;;
34924;SDS011;21130;51.728;8.748;2023-07-29T14:56:32;1.40;;;1.30;;
34924;SDS011;21130;51.728;8.748;2023-07-29T14:58:58;2.88;;;1.30;;
34924;SDS011;21130;51.728;8.748;2023-07-29T15:01:26;2.55;;;1.42;;